createdAt,value
2018-09-24T00:00:47.893Z,78.76
2018-09-24T00:03:16.249Z,78.47
2018-09-24T00:05:44.517Z,77.53
2018-09-24T00:08:12.765Z,77.64
2018-09-24T00:10:41.073Z,78.48
2018-09-24T00:13:09.370Z,77.89
2018-09-24T00:15:37.702Z,78.34
2018-09-24T00:18:05.975Z,77.71
2018-09-24T00:20:34.237Z,77.83
2018-09-24T00:23:02.513Z,78.05
2018-09-24T00:25:30.867Z,77.48
2018-09-24T00:27:59.268Z,78.21
2018-09-24T00:30:27.594Z,78.10
2018-09-24T00:32:55.853Z,78.00
2018-09-24T00:35:24.104Z,77.25
2018-09-24T00:37:52.480Z,78.25
2018-09-24T00:40:20.955Z,77.46
2018-09-24T00:42:49.205Z,77.94
2018-09-24T00:45:17.501Z,78.17
2018-09-24T00:47:45.752Z,77.81
2018-09-24T00:50:14.031Z,78.08
2018-09-24T00:52:42.413Z,77.73
2018-09-24T00:55:10.711Z,77.23
2018-09-24T00:57:38.981Z,77.60
2018-09-24T01:00:07.370Z,78.90
2018-09-24T01:02:35.618Z,79.03
2018-09-24T01:05:03.953Z,78.29
2018-09-24T01:07:32.229Z,78.43
2018-09-24T01:10:00.553Z,78.87
2018-09-24T01:12:28.812Z,80.03
2018-09-24T01:14:57.157Z,78.90
2018-09-24T01:17:25.506Z,79.15
2018-09-24T01:19:53.773Z,79.04
2018-09-24T01:22:22.114Z,79.80
2018-09-24T01:24:50.362Z,79.31
2018-09-24T01:27:18.598Z,79.87
2018-09-24T01:29:46.851Z,78.95
2018-09-24T01:32:15.105Z,79.41
2018-09-24T01:34:43.382Z,79.45
2018-09-24T01:37:11.662Z,79.50
2018-09-24T01:39:39.916Z,79.78
2018-09-24T01:42:08.227Z,79.57
2018-09-24T01:44:36.511Z,78.99
2018-09-24T01:47:04.772Z,79.27
2018-09-24T01:49:33.005Z,79.17
2018-09-24T01:52:01.313Z,78.98
2018-09-24T01:54:30.475Z,78.97
2018-09-24T01:56:58.843Z,77.97
2018-09-24T01:59:27.213Z,78.55
2018-09-24T02:01:55.500Z,77.98
2018-09-24T02:04:23.781Z,79.28
2018-09-24T02:06:56.246Z,78.98
2018-09-24T02:09:24.626Z,78.87
2018-09-24T02:11:52.945Z,78.30
2018-09-24T02:14:21.193Z,79.46
2018-09-24T02:16:49.456Z,78.10
2018-09-24T02:19:17.924Z,79.46
2018-09-24T02:21:46.176Z,77.90
2018-09-24T02:24:14.442Z,78.45
2018-09-24T02:26:42.709Z,77.67
2018-09-24T02:29:11.186Z,77.85
2018-09-24T02:31:39.672Z,78.17
2018-09-24T02:34:08.783Z,77.92
2018-09-24T02:36:37.167Z,77.77
2018-09-24T02:39:07.322Z,76.41
2018-09-24T02:41:35.898Z,78.00
2018-09-24T02:44:04.308Z,77.28
2018-09-24T02:46:32.657Z,77.71
2018-09-24T02:49:02.982Z,77.56
2018-09-24T02:51:31.946Z,77.48
2018-09-24T02:54:00.213Z,77.50
2018-09-24T02:56:28.604Z,77.33
2018-09-24T02:58:56.953Z,76.91
2018-09-24T03:01:26.583Z,77.18
2018-09-24T03:03:54.813Z,76.93
2018-09-24T03:06:23.129Z,77.52
2018-09-24T03:08:51.373Z,77.15
2018-09-24T03:11:19.701Z,76.75
2018-09-24T03:13:48.173Z,77.74
2018-09-24T03:16:16.506Z,76.99
2018-09-24T03:18:47.098Z,77.39
2018-09-24T03:21:15.375Z,76.15
2018-09-24T03:23:43.693Z,77.08
2018-09-24T03:26:11.917Z,76.51
2018-09-24T03:28:40.180Z,77.04
2018-09-24T03:31:08.558Z,76.94
2018-09-24T03:33:36.934Z,76.91
2018-09-24T03:36:05.263Z,76.51
2018-09-24T03:38:33.597Z,77.30
2018-09-24T03:41:01.869Z,77.34
2018-09-24T03:43:30.145Z,76.19
2018-09-24T03:45:58.424Z,76.98
2018-09-24T03:48:26.708Z,76.55
2018-09-24T03:50:54.973Z,75.87
2018-09-24T03:53:23.251Z,75.79
2018-09-24T03:55:51.626Z,76.25
2018-09-24T03:58:20.106Z,76.48
2018-09-24T04:00:48.395Z,77.21
2018-09-24T04:03:16.710Z,77.16
2018-09-24T04:05:50.286Z,76.78
2018-09-24T04:08:23.840Z,77.09
2018-09-24T04:10:57.521Z,77.13
2018-09-24T04:13:31.153Z,77.54
2018-09-24T04:16:04.871Z,76.47
2018-09-24T04:18:38.483Z,76.00
2018-09-24T04:21:12.201Z,76.43
2018-09-24T04:23:45.893Z,76.14
2018-09-24T04:26:19.465Z,76.76
2018-09-24T04:28:53.005Z,75.86
2018-09-24T04:31:26.650Z,75.98
2018-09-24T04:34:00.168Z,76.18
2018-09-24T04:36:33.633Z,75.82
2018-09-24T04:39:07.175Z,76.19
2018-09-24T04:41:40.849Z,76.24
2018-09-24T04:44:14.507Z,76.54
2018-09-24T04:46:48.097Z,76.50
2018-09-24T04:49:21.763Z,76.52
2018-09-24T04:51:55.463Z,76.01
2018-09-24T04:54:29.152Z,76.25
2018-09-24T04:57:02.682Z,75.55
2018-09-24T04:59:36.286Z,76.30
2018-09-24T05:02:09.845Z,76.17
2018-09-24T05:04:43.476Z,75.95
2018-09-24T05:07:17.445Z,76.19
2018-09-24T05:09:51.043Z,75.97
2018-09-24T05:12:26.532Z,76.25
2018-09-24T05:15:07.338Z,76.43
2018-09-24T05:17:42.595Z,76.38
2018-09-24T05:20:16.542Z,75.72
2018-09-24T05:22:50.384Z,75.90
2018-09-24T05:25:24.050Z,76.55
2018-09-24T05:27:57.931Z,75.37
2018-09-24T05:30:31.601Z,75.64
2018-09-24T05:33:05.027Z,76.19
2018-09-24T05:35:38.580Z,76.32
2018-09-24T05:38:12.241Z,76.33
2018-09-24T05:40:45.778Z,75.82
2018-09-24T05:43:20.005Z,75.34
2018-09-24T05:45:53.381Z,76.29
2018-09-24T05:48:26.777Z,76.01
2018-09-24T05:51:00.453Z,75.96
2018-09-24T05:53:34.074Z,76.23
2018-09-24T05:56:07.652Z,75.62
2018-09-24T05:58:41.181Z,76.42
2018-09-24T06:01:14.691Z,76.05
2018-09-24T06:03:48.268Z,76.31
2018-09-24T06:06:21.885Z,76.12
2018-09-24T06:08:55.348Z,76.70
2018-09-24T06:11:29.025Z,75.23
2018-09-24T06:14:02.550Z,75.07
2018-09-24T06:16:36.157Z,74.96
2018-09-24T06:19:09.720Z,75.07
2018-09-24T06:21:43.381Z,76.18
2018-09-24T06:24:17.084Z,75.62
2018-09-24T06:26:50.758Z,75.89
2018-09-24T06:29:24.472Z,75.87
2018-09-24T06:31:58.187Z,76.56
2018-09-24T06:34:31.871Z,75.73
2018-09-24T06:37:05.465Z,75.11
2018-09-24T06:39:39.102Z,75.58
2018-09-24T06:42:12.722Z,75.11
2018-09-24T06:44:46.392Z,74.96
2018-09-24T06:47:20.156Z,74.75
2018-09-24T06:49:53.616Z,74.33
2018-09-24T07:01:05.375Z,74.77
2018-09-24T07:03:38.965Z,74.42
2018-09-24T07:06:12.621Z,74.11
2018-09-24T07:08:46.257Z,74.77
2018-09-24T07:11:20.019Z,73.94
2018-09-24T07:13:53.621Z,73.99
2018-09-24T07:16:27.329Z,74.11
2018-09-24T07:19:01.068Z,73.86
2018-09-24T07:21:34.816Z,75.59
2018-09-24T07:24:08.149Z,75.02
2018-09-24T07:26:41.803Z,74.46
2018-09-24T07:29:15.647Z,74.96
2018-09-24T07:31:49.346Z,74.59
2018-09-24T07:34:22.776Z,75.13
2018-09-24T07:36:56.462Z,74.71
2018-09-24T07:39:30.145Z,75.73
2018-09-24T07:42:03.958Z,74.29
2018-09-24T07:44:37.365Z,73.40
2018-09-24T07:47:10.866Z,73.82
2018-09-24T07:49:44.419Z,73.80
2018-09-24T07:52:17.951Z,74.57
2018-09-24T07:54:51.626Z,74.74
2018-09-24T07:57:25.256Z,75.08
2018-09-24T07:59:58.916Z,74.71
2018-09-24T08:02:32.616Z,74.55
2018-09-24T08:05:06.197Z,75.07
2018-09-24T08:07:39.742Z,73.60
2018-09-24T08:10:13.343Z,73.36
2018-09-24T08:12:46.868Z,73.02
2018-09-24T08:15:20.277Z,73.09
2018-09-24T08:17:53.664Z,72.77
2018-09-24T08:20:27.396Z,73.67
2018-09-24T08:23:00.867Z,73.42
2018-09-24T08:25:34.305Z,72.81
2018-09-24T08:28:07.964Z,73.03
2018-09-24T08:30:41.385Z,72.77
2018-09-24T08:33:14.949Z,72.94
2018-09-24T08:35:48.501Z,72.43
2018-09-24T08:38:22.024Z,73.10
2018-09-24T08:40:55.635Z,73.81
2018-09-24T08:43:29.160Z,74.47
2018-09-24T08:46:02.849Z,72.26
2018-09-24T08:48:36.409Z,72.36
2018-09-24T08:51:09.896Z,72.96
2018-09-24T08:53:43.460Z,73.51
2018-09-24T08:56:16.869Z,72.00
2018-09-24T08:58:50.473Z,70.31
2018-09-24T09:01:23.985Z,70.80
2018-09-24T09:03:57.518Z,69.62
2018-09-24T09:06:30.989Z,71.54
2018-09-24T09:09:04.563Z,71.13
2018-09-24T09:11:38.034Z,71.07
2018-09-24T09:14:11.756Z,70.91
2018-09-24T09:16:45.281Z,70.94
2018-09-24T09:19:18.790Z,71.68
2018-09-24T09:21:52.514Z,70.94
2018-09-24T09:24:25.930Z,70.64
2018-09-24T09:26:59.641Z,69.32
2018-09-24T09:29:33.443Z,68.93
2018-09-24T09:32:06.842Z,68.06
2018-09-24T09:34:40.464Z,66.89
2018-09-24T09:37:14.114Z,67.18
2018-09-24T09:39:47.850Z,66.71
2018-09-24T09:42:21.290Z,67.55
2018-09-24T09:44:54.812Z,66.50
2018-09-24T09:47:28.583Z,67.80
2018-09-24T09:50:02.198Z,66.93
2018-09-24T09:52:35.672Z,66.47
2018-09-24T09:55:09.248Z,65.27
2018-09-24T09:57:42.812Z,63.67
2018-09-24T10:00:16.398Z,64.32
2018-09-24T10:02:49.961Z,63.25
2018-09-24T10:05:23.496Z,63.09
2018-09-24T10:07:57.014Z,62.93
2018-09-24T10:10:30.629Z,62.81
2018-09-24T10:13:04.327Z,62.90
2018-09-24T10:15:38.049Z,62.93
2018-09-24T10:18:11.587Z,63.31
2018-09-24T10:20:45.090Z,61.05
2018-09-24T10:23:18.759Z,59.97
2018-09-24T10:25:52.295Z,60.61
2018-09-24T10:28:26.037Z,61.26
2018-09-24T10:30:59.597Z,61.30
2018-09-24T10:33:33.317Z,62.95
2018-09-24T10:36:10.693Z,62.21
2018-09-24T10:38:44.321Z,61.71
2018-09-24T10:41:17.873Z,61.88
2018-09-24T10:43:51.390Z,60.92
2018-09-24T10:46:24.959Z,60.30
2018-09-24T10:48:58.504Z,59.39
2018-09-24T10:51:32.235Z,60.82
2018-09-24T10:54:05.595Z,60.34
2018-09-24T10:56:39.309Z,60.58
2018-09-24T10:59:13.003Z,62.43
2018-09-24T11:01:46.658Z,62.75
2018-09-24T11:04:20.321Z,60.17
2018-09-24T11:06:53.959Z,61.23
2018-09-24T11:09:27.625Z,61.44
2018-09-24T11:12:01.322Z,62.93
2018-09-24T11:14:34.957Z,62.71
2018-09-24T11:17:08.644Z,63.16
2018-09-24T11:19:41.814Z,62.38
2018-09-24T11:22:15.372Z,63.19
2018-09-24T11:24:48.922Z,62.90
2018-09-24T11:27:22.566Z,63.86
2018-09-24T11:29:56.218Z,64.61
2018-09-24T11:32:29.824Z,64.77
2018-09-24T11:35:03.458Z,64.02
2018-09-24T11:37:37.066Z,62.46
2018-09-24T11:40:10.777Z,61.47
2018-09-24T11:42:44.589Z,59.40
2018-09-24T11:45:18.134Z,60.45
2018-09-24T11:47:51.646Z,57.43
2018-09-24T11:50:25.206Z,56.08
2018-09-24T11:52:58.873Z,56.95
2018-09-24T11:55:32.407Z,58.25
2018-09-24T11:58:06.143Z,57.03
2018-09-24T12:00:39.833Z,57.04
2018-09-24T12:03:13.533Z,56.10
2018-09-24T12:05:47.236Z,56.88
2018-09-24T12:08:20.873Z,55.65
2018-09-24T12:10:54.545Z,52.51
2018-09-24T12:13:27.955Z,53.15
2018-09-24T12:16:01.620Z,52.54
2018-09-24T12:18:35.321Z,52.08
2018-09-24T12:21:09.045Z,52.69
2018-09-24T12:23:42.499Z,51.28
2018-09-24T12:26:16.134Z,52.30
2018-09-24T12:28:49.808Z,53.13
2018-09-24T12:31:23.202Z,51.98
2018-09-24T12:33:56.837Z,49.53
2018-09-24T12:36:30.441Z,49.98
2018-09-24T12:39:04.082Z,49.69
2018-09-24T12:41:37.853Z,49.86
2018-09-24T12:44:11.472Z,50.32
2018-09-24T12:46:45.055Z,49.16
2018-09-24T12:49:18.756Z,47.85
2018-09-24T12:51:52.311Z,48.73
2018-09-24T12:54:25.914Z,46.77
2018-09-24T12:56:59.442Z,45.55
2018-09-24T12:59:32.950Z,46.90
2018-09-24T13:02:06.497Z,48.88
2018-09-24T13:04:40.005Z,50.01
2018-09-24T13:07:13.644Z,49.59
2018-09-24T13:09:47.138Z,50.07
2018-09-24T13:12:20.645Z,52.47
2018-09-24T13:14:54.369Z,52.68
2018-09-24T13:17:28.102Z,53.38
2018-09-24T13:20:01.749Z,52.70
2018-09-24T13:22:35.330Z,51.03
2018-09-24T13:25:09.080Z,50.47
2018-09-24T13:27:42.560Z,49.89
2018-09-24T13:30:16.272Z,51.27
2018-09-24T13:32:50.024Z,52.12
2018-09-24T13:35:23.677Z,53.01
2018-09-24T13:37:57.542Z,53.10
2018-09-24T13:40:30.926Z,54.36
2018-09-24T13:43:04.449Z,53.50
2018-09-24T13:45:37.958Z,54.16
2018-09-24T13:48:11.679Z,54.86
2018-09-24T13:50:45.228Z,56.28
2018-09-24T13:53:18.923Z,55.97
2018-09-24T13:55:52.351Z,55.18
2018-09-24T13:58:25.955Z,54.34
2018-09-24T14:00:59.547Z,54.63
2018-09-24T14:03:36.920Z,54.77
2018-09-24T14:06:10.597Z,55.02
2018-09-24T14:08:44.187Z,54.56
2018-09-24T14:11:17.863Z,55.03
2018-09-24T14:13:51.501Z,54.85
2018-09-24T14:16:25.194Z,55.75
2018-09-24T14:18:58.900Z,55.67
2018-09-24T14:21:32.375Z,55.02
2018-09-24T14:24:05.995Z,53.83
2018-09-24T14:26:39.562Z,53.62
2018-09-24T14:29:13.781Z,53.50
2018-09-24T14:31:47.407Z,52.75
2018-09-24T14:34:20.952Z,54.30
2018-09-24T14:36:54.604Z,53.38
2018-09-24T14:39:28.184Z,55.11
2018-09-24T14:42:01.816Z,53.44
2018-09-24T14:44:35.441Z,53.73
2018-09-24T14:47:09.119Z,54.56
2018-09-24T14:49:42.818Z,53.18
2018-09-24T14:52:16.176Z,53.69
2018-09-24T14:54:49.822Z,53.11
2018-09-24T14:57:23.517Z,53.15
2018-09-24T14:59:56.989Z,53.72
2018-09-24T15:02:30.740Z,54.39
2018-09-24T15:05:04.221Z,54.12
2018-09-24T15:07:37.892Z,54.15
2018-09-24T15:10:11.501Z,54.94
2018-09-24T15:12:45.066Z,52.66
2018-09-24T15:15:18.554Z,51.42
2018-09-24T15:17:51.958Z,50.96
2018-09-24T15:20:25.552Z,50.74
2018-09-24T15:22:59.097Z,52.02
2018-09-24T15:25:32.787Z,51.99
2018-09-24T15:28:06.544Z,53.04
2018-09-24T15:30:40.113Z,53.17
2018-09-24T15:33:13.716Z,52.66
2018-09-24T15:35:47.297Z,53.27
2018-09-24T15:38:20.893Z,52.94
2018-09-24T15:40:54.512Z,53.14
2018-09-24T15:43:27.901Z,54.48
2018-09-24T15:46:01.416Z,54.92
2018-09-24T15:48:34.994Z,56.28
2018-09-24T15:51:08.525Z,56.92
2018-09-24T15:53:42.017Z,56.04
2018-09-24T15:56:15.518Z,56.72
2018-09-24T15:58:48.971Z,55.32
2018-09-24T16:01:22.593Z,56.29
2018-09-24T16:03:56.105Z,57.19
2018-09-24T16:06:29.707Z,56.14
2018-09-24T16:09:03.234Z,56.88
2018-09-24T16:11:36.726Z,56.83
2018-09-24T16:14:10.370Z,56.99
2018-09-24T16:16:43.986Z,58.13
2018-09-24T16:19:17.694Z,58.55
2018-09-24T16:21:51.877Z,58.31
2018-09-24T16:24:25.430Z,58.38
2018-09-24T16:26:59.130Z,58.42
2018-09-24T16:29:32.725Z,58.76
2018-09-24T16:32:06.262Z,56.82
2018-09-24T16:34:39.924Z,57.90
2018-09-24T16:37:13.428Z,55.93
2018-09-24T16:39:46.982Z,56.06
2018-09-24T16:42:20.721Z,56.70
2018-09-24T16:44:54.298Z,56.68
2018-09-24T16:47:27.949Z,54.61
2018-09-24T16:50:01.731Z,53.82
2018-09-24T16:52:35.397Z,53.47
2018-09-24T16:55:08.927Z,53.65
2018-09-24T16:57:42.530Z,52.28
2018-09-24T17:00:16.121Z,51.54
2018-09-24T17:02:49.498Z,52.49
2018-09-24T17:05:23.079Z,53.52
2018-09-24T17:07:56.573Z,53.49
2018-09-24T17:10:30.015Z,54.03
2018-09-24T17:13:03.733Z,53.79
2018-09-24T17:15:38.261Z,53.85
2018-09-24T17:18:12.036Z,55.78
2018-09-24T17:20:45.667Z,56.05
2018-09-24T17:23:19.176Z,56.20
2018-09-24T17:25:52.569Z,55.95
2018-09-24T17:28:26.168Z,56.99
2018-09-24T17:30:59.724Z,56.46
2018-09-24T17:33:33.136Z,57.29
2018-09-24T17:36:06.746Z,57.48
2018-09-24T17:38:40.222Z,56.49
2018-09-24T17:41:13.759Z,55.70
2018-09-24T17:43:47.283Z,56.63
2018-09-24T17:46:20.817Z,57.27
2018-09-24T17:48:54.332Z,58.25
2018-09-24T17:51:27.859Z,58.23
2018-09-24T17:54:01.329Z,58.55
2018-09-24T17:56:34.815Z,58.28
2018-09-24T17:59:08.425Z,59.70
2018-09-24T18:01:42.095Z,60.34
2018-09-24T18:04:15.506Z,60.46
2018-09-24T18:06:48.891Z,59.90
2018-09-24T18:09:22.538Z,61.46
2018-09-24T18:11:56.078Z,61.41
2018-09-24T18:14:29.654Z,60.71
2018-09-24T18:17:03.082Z,61.27
2018-09-24T18:19:36.707Z,62.07
2018-09-24T18:22:10.186Z,62.24
2018-09-24T18:24:43.734Z,61.94
2018-09-24T18:27:17.196Z,62.70
2018-09-24T18:29:50.718Z,61.91
2018-09-24T18:32:24.283Z,62.46
2018-09-24T18:34:57.782Z,62.58
2018-09-24T18:37:31.304Z,63.76
2018-09-24T18:40:04.717Z,63.74
2018-09-24T18:42:38.205Z,63.90
2018-09-24T18:45:11.675Z,63.69
2018-09-24T18:47:45.062Z,63.85
2018-09-24T18:50:18.627Z,64.76
2018-09-24T18:52:52.206Z,64.78
2018-09-24T18:55:25.702Z,64.36
2018-09-24T18:57:59.156Z,64.35
2018-09-24T19:00:32.686Z,64.57
2018-09-24T19:03:06.183Z,64.66
2018-09-24T19:05:39.626Z,65.17
2018-09-24T19:08:13.154Z,64.07
2018-09-24T19:10:46.615Z,65.04
2018-09-24T19:13:20.153Z,65.09
2018-09-24T19:15:53.721Z,64.70
2018-09-24T19:18:27.216Z,63.81
2018-09-24T19:21:00.724Z,64.03
2018-09-24T19:23:34.259Z,63.87
2018-09-24T19:26:07.774Z,64.03
2018-09-24T19:28:41.316Z,64.60
2018-09-24T19:31:14.936Z,64.37
2018-09-24T19:33:48.427Z,64.77
2018-09-24T19:36:21.959Z,65.46
2018-09-24T19:38:55.476Z,65.12
2018-09-24T19:41:29.070Z,65.37
2018-09-24T19:44:02.672Z,65.60
2018-09-24T19:46:36.207Z,65.42
2018-09-24T19:49:09.658Z,65.40
2018-09-24T19:51:43.175Z,64.96
2018-09-24T19:54:16.758Z,65.02
2018-09-24T19:56:50.258Z,64.62
2018-09-24T19:59:23.811Z,65.23
2018-09-24T20:01:57.362Z,65.77
2018-09-24T20:04:30.958Z,65.76
2018-09-24T20:07:04.467Z,65.74
2018-09-24T20:09:45.444Z,66.32
2018-09-24T20:12:19.019Z,66.88
2018-09-24T20:14:52.514Z,67.09
2018-09-24T20:17:26.017Z,66.14
2018-09-24T20:19:59.436Z,67.58
2018-09-24T20:22:32.991Z,67.34
2018-09-24T20:25:06.490Z,67.23
2018-09-24T20:27:39.966Z,67.75
2018-09-24T20:30:13.530Z,68.13
2018-09-24T20:32:47.188Z,68.33
2018-09-24T20:35:20.637Z,67.93
2018-09-24T20:37:54.058Z,68.25
2018-09-24T20:40:27.622Z,68.54
2018-09-24T20:43:01.117Z,68.38
2018-09-24T20:45:34.675Z,68.30
2018-09-24T20:48:08.223Z,68.06
2018-09-24T20:50:41.723Z,68.75
2018-09-24T20:53:15.233Z,68.51
2018-09-24T20:55:48.658Z,68.06
2018-09-24T20:58:22.249Z,68.16
2018-09-24T21:00:55.829Z,68.82
2018-09-24T21:03:29.359Z,69.04
2018-09-24T21:06:02.944Z,69.12
2018-09-24T21:08:36.479Z,67.87
2018-09-24T21:11:10.043Z,68.53
2018-09-24T21:13:43.486Z,67.71
2018-09-24T21:16:17.119Z,68.50
2018-09-24T21:18:50.654Z,68.06
2018-09-24T21:21:24.237Z,68.67
2018-09-24T21:23:57.703Z,67.75
2018-09-24T21:26:31.205Z,68.23
2018-09-24T21:29:04.747Z,69.28
2018-09-24T21:31:38.300Z,68.68
2018-09-24T21:34:11.951Z,68.57
2018-09-24T21:36:46.129Z,68.37
2018-09-24T21:39:19.689Z,68.58
2018-09-24T21:41:59.684Z,69.22
2018-09-24T21:44:33.202Z,68.02
2018-09-24T21:47:06.814Z,68.15
2018-09-24T21:49:40.482Z,68.42
2018-09-24T21:52:14.054Z,68.54
2018-09-24T21:54:47.599Z,69.16
2018-09-24T21:57:21.147Z,68.91
2018-09-24T21:59:55.168Z,69.02
2018-09-24T22:02:28.715Z,68.88
2018-09-24T22:05:02.260Z,69.70
2018-09-24T22:07:35.819Z,70.02
2018-09-24T22:10:09.329Z,69.85
2018-09-24T22:12:43.419Z,69.82
2018-09-24T22:15:17.055Z,69.11
2018-09-24T22:17:50.707Z,68.61
2018-09-24T22:20:24.377Z,69.74
2018-09-24T22:22:57.973Z,69.11
2018-09-24T22:25:32.291Z,69.24
2018-09-24T22:28:05.738Z,69.56
2018-09-24T22:30:39.291Z,69.52
2018-09-24T22:33:12.869Z,68.62
2018-09-24T22:35:46.903Z,69.34
2018-09-24T22:38:20.362Z,69.04
2018-09-24T22:40:54.455Z,69.92
2018-09-24T22:43:27.967Z,69.95
2018-09-24T22:46:01.409Z,69.03
2018-09-24T22:48:34.959Z,69.57
2018-09-24T22:51:08.522Z,69.36
2018-09-24T22:53:48.766Z,69.22
2018-09-24T22:56:22.315Z,69.70
2018-09-24T22:58:55.919Z,69.10
2018-09-24T23:01:29.487Z,68.83
2018-09-24T23:04:03.004Z,69.93
2018-09-24T23:06:36.541Z,70.14
2018-09-24T23:09:10.799Z,69.98
2018-09-24T23:11:44.381Z,70.16
2018-09-24T23:14:17.939Z,69.78
2018-09-24T23:16:51.530Z,69.53
2018-09-24T23:19:25.019Z,69.62
2018-09-24T23:21:58.494Z,70.37
2018-09-24T23:24:32.060Z,70.46
2018-09-24T23:27:05.623Z,70.47
2018-09-24T23:29:39.209Z,70.30
2018-09-24T23:32:12.700Z,69.28
2018-09-24T23:34:46.190Z,68.87
2018-09-24T23:37:19.784Z,69.04
2018-09-24T23:39:53.391Z,69.96
2018-09-24T23:42:27.014Z,69.71
2018-09-24T23:45:00.580Z,69.81
2018-09-24T23:47:34.205Z,69.37
2018-09-24T23:50:07.813Z,70.13
2018-09-24T23:52:41.453Z,69.96
2018-09-24T23:55:15.015Z,69.12
2018-09-24T23:57:48.552Z,69.39
